ADDS METAR Data INFO
IDs: Format: Raw Decoded Include TAF

Data at: 2037 UTC 22 Feb 2018

KGLD 221953Z AUTO 16010KT 10SM OVC018 M03/M08 A3003 RMK AO2 SLP208 T10331083
KGLD 221903Z AUTO 14006KT 10SM BKN018 M04/M09 A3005 RMK AO2 T10391089
KGLD 221853Z AUTO 13008KT 10SM SCT017 SCT095 M04/M09 A3006 RMK AO2 SNE32 SLP216 P0000 T10391094
KGLD 221753Z AUTO 14004KT 6SM -SN SCT028 BKN065 OVC090 M06/M10 A3006 RMK AO2 SNB51 SLP220 P0000 60000 T10611100 11056 21078 58026
KGLD 221704Z AUTO 14006KT 10SM OVC017 M06/M11 A3010 RMK AO2 T10611106
KGLD 221653Z AUTO 15006KT 10SM OVC014 M07/M11 A3010 RMK AO2 SLP234 T10671111
KGLD 221628Z AUTO 14005KT 10SM OVC014 M07/M11 A3010 RMK AO2 T10721111
KGLD 221553Z AUTO 17009KT 10SM OVC015 M07/M12 A3013 RMK AO2 SLP244 T10671122
KGLD 221537Z AUTO 15010KT 10SM OVC014 M07/M12 A3015 RMK AO2 T10721122
KGLD 221453Z AUTO 16012KT 10SM OVC017 M07/M13 A3015 RMK AO2 SLP250 T10721133 58004
KGLD 221353Z AUTO 16013KT 10SM OVC019 M08/M13 A3016 RMK AO2 SLP254 T10781133
KGLD 221253Z AUTO 15010KT 10SM BKN020 OVC085 M08/M15 A3017 RMK AO2 SLP255 T10781150
KGLD 221251Z AUTO 15010KT 10SM BKN020 OVC085 M08/M15 A3016 RMK AO2
KGLD 221229Z AUTO 14008KT 10SM SCT021 OVC080 M08/M15 A3016 RMK AO2 T10781150
KGLD 221153Z AUTO 15008KT 10SM OVC023 M07/M14 A3015 RMK AO2 SLP246 T10721144 11061 21094 58008
KGLD 221118Z AUTO 15010KT 10SM OVC029 M07/M15 A3018 RMK AO2 T10721150
KGLD 221107Z AUTO 16011KT 10SM BKN030 M07/M15 A3019 RMK AO2 T10721150
KGLD 221053Z AUTO 14007KT 10SM BKN026 BKN110 M07/M15 A3017 RMK AO2 PRESRR SLP254 T10721150
KGLD 220953Z AUTO 12007KT 10SM BKN028 M07/M14 A3018 RMK AO2 SLP253 T10721144
KGLD 220951Z AUTO 12006KT 10SM BKN028 M07/M14 A3017 RMK AO2
KGLD 220853Z AUTO 12004KT 10SM FEW027 SCT035 M09/M14 A3020 RMK AO2 SLP262 T10891139 58014
KGLD 220753Z AUTO 13005KT 10SM BKN037 M09/M14 A3023 RMK AO2 SLP274 T10941144
KGLD 220653Z AUTO 13008KT 10SM BKN038 M07/M16 A3024 RMK AO2 SLP276 T10721161 410061178
KGLD 220553Z AUTO 13008KT 10SM OVC037 M06/M16 A3025 RMK AO2 SLP282 T10611156 11033 21061 58004
KGLD 220453Z AUTO 14007KT 10SM OVC035 M06/M17 A3027 RMK AO2 SLP290 T10561167
KGLD 220353Z AUTO 14010KT 10SM OVC034 M06/M16 A3026 RMK AO2 SLP292 T10561161
KGLD 212353Z AUTO 13011KT 10SM BKN047 OVC055 M03/M16 A3027 RMK AO2 SLP304 T10331161 11006 21050 56004
KGLD 212253Z AUTO 13011KT 10SM OVC050 M03/M16 A3027 RMK AO2 SLP302 T10281161
KGLD 212153Z AUTO 14010G19KT 10SM OVC060 M02/M17 A3026 RMK AO2 SLP301 T10221172
KGLD 212053Z AUTO 15016G22KT 10SM FEW085 M01/M17 A3028 RMK AO2 SLP304 T10061167 57026
KGLD 211953Z AUTO 17013G19KT 10SM CLR M02/M16 A3031 RMK AO2 SLP313 T10221156
KGLD 211853Z AUTO 17011G18KT 10SM CLR M03/M16 A3034 RMK AO2 SLP328 T10281161
KGLD 211753Z AUTO 16007KT 10SM CLR M05/M15 A3037 RMK AO2 SLP339 T10501150 11050 21178 58010
KGLD 211653Z AUTO 17009KT 10SM SCT080 M07/M16 A3038 RMK AO2 SLP345 T10721156
KGLD 211553Z AUTO 17008KT 10SM CLR M09/M15 A3040 RMK AO2 SLP357 T10941150
KGLD 211453Z AUTO 15008KT 10SM CLR M14/M17 A3040 RMK AO2 SLP366 T11391172 53029
KGLD 211353Z AUTO 24006KT 10SM CLR M17/M20 A3036 RMK AO2 SLP353 T11671200
KGLD 211253Z AUTO 24004KT 10SM CLR M18/M21 A3033 RMK AO2 SLP345 T11781206